الصفحة الرئيسية
METAR-TAF:

METAR-TAF

مطار :

مطار كوبنهاغن

كوبنهاغن, الدنمارك

دائرة عرض: 55-37N, خط طول: 012-39E, ارتفاع: 5 متر

مراقبة الطقس الحالي

تاريخ ووقت الإصدار 33 دقيقة قبل الساعة 22:20UTC
ريح 6 عقدة من الجنوب الغربي
درجة الحرارة 17°درجة مئوية
الرطوبة 88%
ضغط 1017 hPa
الرؤية 10 كم أو أكثر
الغيوم لا تقل 1500 م ولا وجود لمزنة ركامية السحاب الأسود

METAR: EKCH 152220Z 23006KT CAVOK 17/15 Q1017 NOSIG

زمن: 00:53 (22:53 UTC)

توقعات

تاريخ ووقت الإصدار 5ساعات و 50 دقيقة قبل الساعة 17:03UTC
التوقعات صالحة من15 الساعة 18 UTC إلى 16 الساعة 18 UTC
ريح 8 عقدة من الجنوب/الجنوب الغربي
الرؤية 10 كم أو أكثر
غيوم متفرقة على ارتفاع 2000 قدم
أصبح
من 16 الساعة 08 UTC إلى 16 الساعة 10 UTC
ريح 10 عقدة من الجنوب
مؤقت
من 16 الساعة 10 UTC إلى 16 الساعة 17 UTC
ريح 10 عقدة من الجنوب تتزايد حتى 25 عقدة

TAF: EKCH 151703Z 1518/1618 21008KT 9999 SCT020 BECMG 1608/1610 18010KT TEMPO 1610/1617 18010G25KT

أرصاد الطقس والتوقعات من أكثر من 4000 مطار (تقارير الطقس للمطار METAR والتنبؤ بالطقس بالمطارTAF).

المحطات المتاحة هي النقط الصفراء والحمراء على الخريطة.

حرك المؤشر فوق النقطة لمعرفة اسم المحطة.

ثم انقر لمعرفة أرصاد وتوقعات الطقس.

لتغيير الخارطة: اضغط على الأزرار الخضراء مع رمز الصليب الأسود للتكبير. على الزر الأخضر مع شرطة للتصغير، أو على الأسهم الخضراء للخرائط المجاورة.


METAR-TAF: